sensor_id;sensor_type;location;lat;lon;timestamp;temperature;humidity
4896;DHT22;2463;49.948;8.472;2022-07-05T00:01:19;18.20;99.90
4896;DHT22;2463;49.948;8.472;2022-07-05T00:03:46;18.10;99.90
4896;DHT22;2463;49.948;8.472;2022-07-05T00:06:13;18.10;99.90
4896;DHT22;2463;49.948;8.472;2022-07-05T00:08:40;18.10;99.90
4896;DHT22;2463;49.948;8.472;2022-07-05T00:11:07;18.10;99.90
4896;DHT22;2463;49.948;8.472;2022-07-05T00:13:34;18.00;99.90
4896;DHT22;2463;49.948;8.472;2022-07-05T00:16:01;18.00;99.90
4896;DHT22;2463;49.948;8.472;2022-07-05T00:18:27;18.00;99.90
4896;DHT22;2463;49.948;8.472;2022-07-05T00:20:54;17.90;99.90
4896;DHT22;2463;49.948;8.472;2022-07-05T00:23:21;18.00;99.90
4896;DHT22;2463;49.948;8.472;2022-07-05T00:25:48;17.90;99.90
4896;DHT22;2463;49.948;8.472;2022-07-05T00:28:14;17.90;99.90
4896;DHT22;2463;49.948;8.472;2022-07-05T00:30:42;17.80;99.90
4896;DHT22;2463;49.948;8.472;2022-07-05T00:33:09;17.90;99.90
4896;DHT22;2463;49.948;8.472;2022-07-05T00:35:35;17.80;99.90
4896;DHT22;2463;49.948;8.472;2022-07-05T00:38:02;17.70;99.90
4896;DHT22;2463;49.948;8.472;2022-07-05T00:40:29;17.70;99.90
4896;DHT22;2463;49.948;8.472;2022-07-05T00:42:56;17.60;99.90
4896;DHT22;2463;49.948;8.472;2022-07-05T00:45:23;17.50;99.90
4896;DHT22;2463;49.948;8.472;2022-07-05T00:47:49;17.50;99.90
4896;DHT22;2463;49.948;8.472;2022-07-05T00:50:16;17.50;99.90
4896;DHT22;2463;49.948;8.472;2022-07-05T00:52:43;17.40;99.90
4896;DHT22;2463;49.948;8.472;2022-07-05T00:55:10;17.30;99.90
4896;DHT22;2463;49.948;8.472;2022-07-05T00:57:37;17.30;99.90
4896;DHT22;2463;49.948;8.472;2022-07-05T01:00:04;17.20;99.90
4896;DHT22;2463;49.948;8.472;2022-07-05T01:02:32;17.10;99.90
4896;DHT22;2463;49.948;8.472;2022-07-05T01:04:59;17.10;99.90
4896;DHT22;2463;49.948;8.472;2022-07-05T01:07:27;17.00;99.90
4896;DHT22;2463;49.948;8.472;2022-07-05T01:09:54;16.90;99.90
4896;DHT22;2463;49.948;8.472;2022-07-05T01:12:22;16.90;99.90
4896;DHT22;2463;49.948;8.472;2022-07-05T01:14:49;16.80;99.90
4896;DHT22;2463;49.948;8.472;2022-07-05T01:17:16;16.80;99.90
4896;DHT22;2463;49.948;8.472;2022-07-05T01:19:43;16.70;99.90
4896;DHT22;2463;49.948;8.472;2022-07-05T01:22:17;16.70;99.90
4896;DHT22;2463;49.948;8.472;2022-07-05T01:24:46;16.60;99.90
4896;DHT22;2463;49.948;8.472;2022-07-05T01:27:13;16.60;99.90
4896;DHT22;2463;49.948;8.472;2022-07-05T01:29:41;16.50;99.90
4896;DHT22;2463;49.948;8.472;2022-07-05T01:32:09;16.50;99.90
4896;DHT22;2463;49.948;8.472;2022-07-05T01:34:39;16.40;99.90
4896;DHT22;2463;49.948;8.472;2022-07-05T01:37:08;16.40;99.90
4896;DHT22;2463;49.948;8.472;2022-07-05T01:39:35;16.40;99.90
4896;DHT22;2463;49.948;8.472;2022-07-05T01:42:02;16.30;99.90
4896;DHT22;2463;49.948;8.472;2022-07-05T01:44:30;16.30;99.90
4896;DHT22;2463;49.948;8.472;2022-07-05T01:47:02;16.30;99.90
4896;DHT22;2463;49.948;8.472;2022-07-05T01:49:34;16.20;99.90
4896;DHT22;2463;49.948;8.472;2022-07-05T01:52:07;16.20;99.90
4896;DHT22;2463;49.948;8.472;2022-07-05T01:54:35;16.20;99.90
4896;DHT22;2463;49.948;8.472;2022-07-05T01:57:04;16.10;99.90
4896;DHT22;2463;49.948;8.472;2022-07-05T01:59:32;16.10;99.90
4896;DHT22;2463;49.948;8.472;2022-07-05T02:02:01;16.00;99.90
4896;DHT22;2463;49.948;8.472;2022-07-05T02:04:29;16.00;99.90
4896;DHT22;2463;49.948;8.472;2022-07-05T02:06:56;16.00;99.90
4896;DHT22;2463;49.948;8.472;2022-07-05T02:09:23;15.90;99.90
4896;DHT22;2463;49.948;8.472;2022-07-05T02:11:51;15.90;99.90
4896;DHT22;2463;49.948;8.472;2022-07-05T02:14:18;15.90;99.90
4896;DHT22;2463;49.948;8.472;2022-07-05T02:16:44;15.80;99.90
4896;DHT22;2463;49.948;8.472;2022-07-05T02:19:11;15.80;99.90
4896;DHT22;2463;49.948;8.472;2022-07-05T02:21:38;15.70;99.90
4896;DHT22;2463;49.948;8.472;2022-07-05T02:24:05;15.70;99.90
4896;DHT22;2463;49.948;8.472;2022-07-05T02:26:33;15.70;99.90
4896;DHT22;2463;49.948;8.472;2022-07-05T02:29:00;15.60;99.90
4896;DHT22;2463;49.948;8.472;2022-07-05T02:31:27;15.60;99.90
4896;DHT22;2463;49.948;8.472;2022-07-05T02:33:55;15.50;99.90
4896;DHT22;2463;49.948;8.472;2022-07-05T02:36:21;15.50;99.90
4896;DHT22;2463;49.948;8.472;2022-07-05T02:38:48;15.40;99.90
4896;DHT22;2463;49.948;8.472;2022-07-05T02:41:15;15.40;99.90
4896;DHT22;2463;49.948;8.472;2022-07-05T02:43:42;15.40;99.90
4896;DHT22;2463;49.948;8.472;2022-07-05T02:46:09;15.40;99.90
4896;DHT22;2463;49.948;8.472;2022-07-05T02:48:37;15.40;99.90
4896;DHT22;2463;49.948;8.472;2022-07-05T02:51:05;15.30;99.90
4896;DHT22;2463;49.948;8.472;2022-07-05T02:53:32;15.30;99.90
4896;DHT22;2463;49.948;8.472;2022-07-05T02:55:58;15.30;99.90
4896;DHT22;2463;49.948;8.472;2022-07-05T02:58:25;15.20;99.90
4896;DHT22;2463;49.948;8.472;2022-07-05T03:00:52;15.20;99.90
4896;DHT22;2463;49.948;8.472;2022-07-05T03:03:19;15.20;99.90
4896;DHT22;2463;49.948;8.472;2022-07-05T03:05:45;15.10;99.90
4896;DHT22;2463;49.948;8.472;2022-07-05T03:08:12;15.10;99.90
4896;DHT22;2463;49.948;8.472;2022-07-05T03:10:39;15.10;99.90
4896;DHT22;2463;49.948;8.472;2022-07-05T03:13:06;15.00;99.90
4896;DHT22;2463;49.948;8.472;2022-07-05T03:15:33;15.00;99.90
4896;DHT22;2463;49.948;8.472;2022-07-05T03:18:00;15.00;99.90
4896;DHT22;2463;49.948;8.472;2022-07-05T03:20:27;15.00;99.90
4896;DHT22;2463;49.948;8.472;2022-07-05T03:22:54;14.90;99.90
4896;DHT22;2463;49.948;8.472;2022-07-05T03:25:20;14.90;99.90
4896;DHT22;2463;49.948;8.472;2022-07-05T03:27:47;14.90;99.90
4896;DHT22;2463;49.948;8.472;2022-07-05T03:30:14;14.90;99.90
4896;DHT22;2463;49.948;8.472;2022-07-05T03:32:41;14.80;99.90
4896;DHT22;2463;49.948;8.472;2022-07-05T03:35:08;14.80;99.90
4896;DHT22;2463;49.948;8.472;2022-07-05T03:37:35;14.80;99.90
4896;DHT22;2463;49.948;8.472;2022-07-05T03:40:03;14.80;99.90
4896;DHT22;2463;49.948;8.472;2022-07-05T03:42:30;14.80;99.90
4896;DHT22;2463;49.948;8.472;2022-07-05T03:44:57;14.80;99.90
4896;DHT22;2463;49.948;8.472;2022-07-05T03:47:23;14.80;99.90
4896;DHT22;2463;49.948;8.472;2022-07-05T03:49:50;14.70;99.90
4896;DHT22;2463;49.948;8.472;2022-07-05T03:52:17;14.70;99.90
4896;DHT22;2463;49.948;8.472;2022-07-05T03:54:51;14.70;99.90
4896;DHT22;2463;49.948;8.472;2022-07-05T03:57:18;14.70;99.90
4896;DHT22;2463;49.948;8.472;2022-07-05T03:59:44;14.70;99.90
4896;DHT22;2463;49.948;8.472;2022-07-05T04:02:12;14.70;99.90
4896;DHT22;2463;49.948;8.472;2022-07-05T04:04:39;14.70;99.90
4896;DHT22;2463;49.948;8.472;2022-07-05T04:07:06;14.70;99.90
4896;DHT22;2463;49.948;8.472;2022-07-05T04:09:33;14.70;99.90
4896;DHT22;2463;49.948;8.472;2022-07-05T04:11:59;14.70;99.90
4896;DHT22;2463;49.948;8.472;2022-07-05T04:14:26;14.80;99.90
4896;DHT22;2463;49.948;8.472;2022-07-05T04:16:53;14.80;99.90
4896;DHT22;2463;49.948;8.472;2022-07-05T04:19:20;14.80;99.90
4896;DHT22;2463;49.948;8.472;2022-07-05T04:21:47;14.80;99.90
4896;DHT22;2463;49.948;8.472;2022-07-05T04:24:14;14.80;99.90
4896;DHT22;2463;49.948;8.472;2022-07-05T04:26:41;14.80;99.90
4896;DHT22;2463;49.948;8.472;2022-07-05T04:29:08;14.80;99.90
4896;DHT22;2463;49.948;8.472;2022-07-05T04:31:35;14.80;99.90
4896;DHT22;2463;49.948;8.472;2022-07-05T04:34:02;14.80;99.90
4896;DHT22;2463;49.948;8.472;2022-07-05T04:36:29;14.90;99.90
4896;DHT22;2463;49.948;8.472;2022-07-05T04:38:56;14.90;99.90
4896;DHT22;2463;49.948;8.472;2022-07-05T04:41:23;14.90;99.90
4896;DHT22;2463;49.948;8.472;2022-07-05T04:43:50;15.00;99.90
4896;DHT22;2463;49.948;8.472;2022-07-05T04:46:16;15.00;99.90
4896;DHT22;2463;49.948;8.472;2022-07-05T04:48:43;15.00;99.90
4896;DHT22;2463;49.948;8.472;2022-07-05T04:51:10;15.10;99.90
4896;DHT22;2463;49.948;8.472;2022-07-05T04:53:37;15.20;99.90
4896;DHT22;2463;49.948;8.472;2022-07-05T04:56:04;15.30;99.90
4896;DHT22;2463;49.948;8.472;2022-07-05T04:58:32;15.20;99.90
4896;DHT22;2463;49.948;8.472;2022-07-05T05:00:58;15.40;99.90
4896;DHT22;2463;49.948;8.472;2022-07-05T05:03:25;15.50;99.90
4896;DHT22;2463;49.948;8.472;2022-07-05T05:05:52;15.60;99.90
4896;DHT22;2463;49.948;8.472;2022-07-05T05:08:19;15.70;99.90
4896;DHT22;2463;49.948;8.472;2022-07-05T05:10:46;15.80;99.90
4896;DHT22;2463;49.948;8.472;2022-07-05T05:13:12;15.90;99.90
4896;DHT22;2463;49.948;8.472;2022-07-05T05:15:39;16.10;99.90
4896;DHT22;2463;49.948;8.472;2022-07-05T05:18:06;16.10;99.90
4896;DHT22;2463;49.948;8.472;2022-07-05T05:20:32;16.20;99.90
4896;DHT22;2463;49.948;8.472;2022-07-05T05:23:06;16.30;99.90
4896;DHT22;2463;49.948;8.472;2022-07-05T05:25:32;16.50;99.90
4896;DHT22;2463;49.948;8.472;2022-07-05T05:28:01;16.50;99.90
4896;DHT22;2463;49.948;8.472;2022-07-05T05:30:28;16.60;99.90
4896;DHT22;2463;49.948;8.472;2022-07-05T05:32:55;16.70;99.90
4896;DHT22;2463;49.948;8.472;2022-07-05T05:35:21;16.80;99.90
4896;DHT22;2463;49.948;8.472;2022-07-05T05:37:56;17.00;99.90
4896;DHT22;2463;49.948;8.472;2022-07-05T05:40:24;17.10;99.90
4896;DHT22;2463;49.948;8.472;2022-07-05T05:42:52;17.20;99.90
4896;DHT22;2463;49.948;8.472;2022-07-05T05:45:19;17.30;99.90
4896;DHT22;2463;49.948;8.472;2022-07-05T05:47:52;17.40;99.90
4896;DHT22;2463;49.948;8.472;2022-07-05T05:50:21;17.50;99.90
4896;DHT22;2463;49.948;8.472;2022-07-05T05:52:49;17.70;99.90
4896;DHT22;2463;49.948;8.472;2022-07-05T05:55:16;17.80;99.90
4896;DHT22;2463;49.948;8.472;2022-07-05T05:57:43;17.90;99.90
4896;DHT22;2463;49.948;8.472;2022-07-05T06:00:11;18.00;99.90
4896;DHT22;2463;49.948;8.472;2022-07-05T06:02:39;18.20;99.90
4896;DHT22;2463;49.948;8.472;2022-07-05T06:05:06;18.30;99.90
4896;DHT22;2463;49.948;8.472;2022-07-05T06:08:03;18.50;99.90
4896;DHT22;2463;49.948;8.472;2022-07-05T06:10:32;18.80;99.90
4896;DHT22;2463;49.948;8.472;2022-07-05T06:13:01;18.90;99.90
4896;DHT22;2463;49.948;8.472;2022-07-05T06:15:28;19.20;99.90
4896;DHT22;2463;49.948;8.472;2022-07-05T06:17:55;19.40;99.90
4896;DHT22;2463;49.948;8.472;2022-07-05T06:20:24;19.60;99.90
4896;DHT22;2463;49.948;8.472;2022-07-05T06:22:52;19.90;99.90
4896;DHT22;2463;49.948;8.472;2022-07-05T06:25:19;20.10;99.90
4896;DHT22;2463;49.948;8.472;2022-07-05T06:27:57;20.50;99.90
4896;DHT22;2463;49.948;8.472;2022-07-05T06:30:25;20.90;99.90
4896;DHT22;2463;49.948;8.472;2022-07-05T06:32:53;21.60;99.90
4896;DHT22;2463;49.948;8.472;2022-07-05T06:35:21;22.60;99.90
4896;DHT22;2463;49.948;8.472;2022-07-05T06:37:53;24.00;99.90
4896;DHT22;2463;49.948;8.472;2022-07-05T06:40:22;25.60;99.90
4896;DHT22;2463;49.948;8.472;2022-07-05T06:42:50;27.10;99.90
4896;DHT22;2463;49.948;8.472;2022-07-05T06:45:17;28.50;97.60
4896;DHT22;2463;49.948;8.472;2022-07-05T06:47:44;29.70;96.30
4896;DHT22;2463;49.948;8.472;2022-07-05T06:50:12;30.70;94.90
4896;DHT22;2463;49.948;8.472;2022-07-05T06:52:38;31.70;92.40
4896;DHT22;2463;49.948;8.472;2022-07-05T06:55:06;32.40;88.20
4896;DHT22;2463;49.948;8.472;2022-07-05T06:57:33;33.30;85.30
4896;DHT22;2463;49.948;8.472;2022-07-05T07:00:00;34.20;84.90
4896;DHT22;2463;49.948;8.472;2022-07-05T07:02:28;35.00;79.70
4896;DHT22;2463;49.948;8.472;2022-07-05T07:04:55;35.60;75.10
4896;DHT22;2463;49.948;8.472;2022-07-05T07:07:39;36.10;75.60
4896;DHT22;2463;49.948;8.472;2022-07-05T07:10:28;36.60;71.20
4896;DHT22;2463;49.948;8.472;2022-07-05T07:12:59;36.20;70.20
4896;DHT22;2463;49.948;8.472;2022-07-05T07:15:27;36.20;69.30
4896;DHT22;2463;49.948;8.472;2022-07-05T07:17:53;35.90;69.10
4896;DHT22;2463;49.948;8.472;2022-07-05T07:20:20;35.70;66.00
4896;DHT22;2463;49.948;8.472;2022-07-05T07:22:47;35.50;69.90
4896;DHT22;2463;49.948;8.472;2022-07-05T07:25:14;35.30;67.80
4896;DHT22;2463;49.948;8.472;2022-07-05T07:27:46;35.10;68.90
4896;DHT22;2463;49.948;8.472;2022-07-05T07:30:14;34.70;69.70
4896;DHT22;2463;49.948;8.472;2022-07-05T07:32:42;34.20;68.90
4896;DHT22;2463;49.948;8.472;2022-07-05T07:35:09;33.80;70.20
4896;DHT22;2463;49.948;8.472;2022-07-05T07:37:36;33.30;67.70
4896;DHT22;2463;49.948;8.472;2022-07-05T07:40:04;33.00;69.30
4896;DHT22;2463;49.948;8.472;2022-07-05T07:42:31;32.60;68.70
4896;DHT22;2463;49.948;8.472;2022-07-05T07:44:57;32.20;69.70
4896;DHT22;2463;49.948;8.472;2022-07-05T07:47:24;31.70;66.30
4896;DHT22;2463;49.948;8.472;2022-07-05T07:49:51;30.90;66.50
4896;DHT22;2463;49.948;8.472;2022-07-05T07:52:18;30.50;71.10
4896;DHT22;2463;49.948;8.472;2022-07-05T07:54:45;30.10;69.10
4896;DHT22;2463;49.948;8.472;2022-07-05T07:57:12;29.80;68.90
4896;DHT22;2463;49.948;8.472;2022-07-05T07:59:39;29.90;74.20
4896;DHT22;2463;49.948;8.472;2022-07-05T08:02:06;29.90;74.10
4896;DHT22;2463;49.948;8.472;2022-07-05T08:04:33;30.00;74.90
4896;DHT22;2463;49.948;8.472;2022-07-05T08:07:00;30.00;70.20
4896;DHT22;2463;49.948;8.472;2022-07-05T08:09:26;30.20;71.60
4896;DHT22;2463;49.948;8.472;2022-07-05T08:11:53;30.20;73.60
4896;DHT22;2463;49.948;8.472;2022-07-05T08:14:19;30.40;72.10
4896;DHT22;2463;49.948;8.472;2022-07-05T08:16:47;30.50;72.10
4896;DHT22;2463;49.948;8.472;2022-07-05T08:19:18;30.60;70.20
4896;DHT22;2463;49.948;8.472;2022-07-05T08:22:05;30.60;70.50
4896;DHT22;2463;49.948;8.472;2022-07-05T08:24:38;30.70;71.00
4896;DHT22;2463;49.948;8.472;2022-07-05T08:27:07;30.80;70.40
4896;DHT22;2463;49.948;8.472;2022-07-05T08:29:34;30.90;67.80
4896;DHT22;2463;49.948;8.472;2022-07-05T08:32:01;31.00;69.10
4896;DHT22;2463;49.948;8.472;2022-07-05T08:34:28;31.10;71.50
4896;DHT22;2463;49.948;8.472;2022-07-05T08:36:54;31.30;68.60
4896;DHT22;2463;49.948;8.472;2022-07-05T08:39:21;31.40;68.80
4896;DHT22;2463;49.948;8.472;2022-07-05T08:41:49;31.50;67.10
4896;DHT22;2463;49.948;8.472;2022-07-05T08:44:21;31.60;65.70
4896;DHT22;2463;49.948;8.472;2022-07-05T08:46:50;31.70;66.70
4896;DHT22;2463;49.948;8.472;2022-07-05T08:49:23;31.80;65.10
4896;DHT22;2463;49.948;8.472;2022-07-05T08:51:52;31.70;67.80
4896;DHT22;2463;49.948;8.472;2022-07-05T08:54:22;31.90;67.60
4896;DHT22;2463;49.948;8.472;2022-07-05T08:56:51;31.90;62.40
4896;DHT22;2463;49.948;8.472;2022-07-05T08:59:38;31.90;66.30
4896;DHT22;2463;49.948;8.472;2022-07-05T09:02:05;32.10;62.30
4896;DHT22;2463;49.948;8.472;2022-07-05T09:04:42;32.20;61.50
4896;DHT22;2463;49.948;8.472;2022-07-05T09:07:13;32.00;62.30
4896;DHT22;2463;49.948;8.472;2022-07-05T09:09:42;32.00;63.10
4896;DHT22;2463;49.948;8.472;2022-07-05T09:12:14;32.00;64.60
4896;DHT22;2463;49.948;8.472;2022-07-05T09:14:54;32.30;62.00
4896;DHT22;2463;49.948;8.472;2022-07-05T09:17:21;32.40;60.80
4896;DHT22;2463;49.948;8.472;2022-07-05T09:20:14;32.60;61.90
4896;DHT22;2463;49.948;8.472;2022-07-05T09:22:51;32.60;58.20
4896;DHT22;2463;49.948;8.472;2022-07-05T09:25:24;32.50;62.20
4896;DHT22;2463;49.948;8.472;2022-07-05T09:28:02;32.60;62.90
4896;DHT22;2463;49.948;8.472;2022-07-05T09:30:39;32.80;58.90
4896;DHT22;2463;49.948;8.472;2022-07-05T09:33:15;32.80;57.90
4896;DHT22;2463;49.948;8.472;2022-07-05T09:35:50;32.80;58.50
4896;DHT22;2463;49.948;8.472;2022-07-05T09:38:26;33.00;57.30
4896;DHT22;2463;49.948;8.472;2022-07-05T09:40:57;33.10;59.70
4896;DHT22;2463;49.948;8.472;2022-07-05T09:43:26;33.30;60.50
4896;DHT22;2463;49.948;8.472;2022-07-05T09:45:55;33.60;61.90
4896;DHT22;2463;49.948;8.472;2022-07-05T09:48:23;33.80;57.70
4896;DHT22;2463;49.948;8.472;2022-07-05T09:51:24;33.90;57.90
4896;DHT22;2463;49.948;8.472;2022-07-05T09:54:11;34.20;58.50
4896;DHT22;2463;49.948;8.472;2022-07-05T09:56:45;33.90;55.50
4896;DHT22;2463;49.948;8.472;2022-07-05T09:59:13;33.70;57.50
4896;DHT22;2463;49.948;8.472;2022-07-05T10:01:41;33.80;57.90
4896;DHT22;2463;49.948;8.472;2022-07-05T10:04:08;34.00;58.40
4896;DHT22;2463;49.948;8.472;2022-07-05T10:06:35;34.20;56.50
4896;DHT22;2463;49.948;8.472;2022-07-05T10:09:03;34.50;58.60
4896;DHT22;2463;49.948;8.472;2022-07-05T10:11:30;34.60;56.50
4896;DHT22;2463;49.948;8.472;2022-07-05T10:13:59;34.50;56.60
4896;DHT22;2463;49.948;8.472;2022-07-05T10:16:27;34.50;54.40
4896;DHT22;2463;49.948;8.472;2022-07-05T10:18:56;34.40;55.10
4896;DHT22;2463;49.948;8.472;2022-07-05T10:21:24;34.10;55.00
4896;DHT22;2463;49.948;8.472;2022-07-05T10:23:53;34.20;56.00
4896;DHT22;2463;49.948;8.472;2022-07-05T10:26:24;34.40;55.10
4896;DHT22;2463;49.948;8.472;2022-07-05T10:28:53;34.40;52.70
4896;DHT22;2463;49.948;8.472;2022-07-05T10:31:28;34.40;53.50
4896;DHT22;2463;49.948;8.472;2022-07-05T10:33:56;34.40;53.80
4896;DHT22;2463;49.948;8.472;2022-07-05T10:36:25;34.50;53.80
4896;DHT22;2463;49.948;8.472;2022-07-05T10:38:53;34.60;53.90
4896;DHT22;2463;49.948;8.472;2022-07-05T10:41:23;34.70;54.70
4896;DHT22;2463;49.948;8.472;2022-07-05T10:43:54;34.90;51.90
4896;DHT22;2463;49.948;8.472;2022-07-05T10:46:48;35.10;52.60
4896;DHT22;2463;49.948;8.472;2022-07-05T10:49:16;35.30;50.70
4896;DHT22;2463;49.948;8.472;2022-07-05T10:51:44;35.50;50.80
4896;DHT22;2463;49.948;8.472;2022-07-05T10:54:18;35.50;47.70
4896;DHT22;2463;49.948;8.472;2022-07-05T11:00:08;35.40;47.70
4896;DHT22;2463;49.948;8.472;2022-07-05T11:02:36;35.60;48.00
4896;DHT22;2463;49.948;8.472;2022-07-05T11:05:03;35.70;47.90
4896;DHT22;2463;49.948;8.472;2022-07-05T11:08:01;35.70;45.00
4896;DHT22;2463;49.948;8.472;2022-07-05T11:10:29;35.70;47.20
4896;DHT22;2463;49.948;8.472;2022-07-05T11:12:59;35.90;46.60
4896;DHT22;2463;49.948;8.472;2022-07-05T11:15:25;35.90;48.50
4896;DHT22;2463;49.948;8.472;2022-07-05T11:18:15;35.90;46.90
4896;DHT22;2463;49.948;8.472;2022-07-05T11:20:42;35.90;46.20
4896;DHT22;2463;49.948;8.472;2022-07-05T11:23:12;35.70;46.30
4896;DHT22;2463;49.948;8.472;2022-07-05T11:25:41;35.70;45.90
4896;DHT22;2463;49.948;8.472;2022-07-05T11:28:15;35.70;46.30
4896;DHT22;2463;49.948;8.472;2022-07-05T11:30:54;36.00;47.00
4896;DHT22;2463;49.948;8.472;2022-07-05T11:33:29;36.20;46.60
4896;DHT22;2463;49.948;8.472;2022-07-05T11:35:56;36.40;46.80
4896;DHT22;2463;49.948;8.472;2022-07-05T11:38:26;36.70;44.10
4896;DHT22;2463;49.948;8.472;2022-07-05T11:41:14;36.40;42.80
4896;DHT22;2463;49.948;8.472;2022-07-05T11:43:41;35.90;46.40
4896;DHT22;2463;49.948;8.472;2022-07-05T11:46:09;36.10;44.80
4896;DHT22;2463;49.948;8.472;2022-07-05T11:48:56;35.40;46.00
4896;DHT22;2463;49.948;8.472;2022-07-05T11:51:23;35.00;47.60
4896;DHT22;2463;49.948;8.472;2022-07-05T11:53:50;34.90;48.00
4896;DHT22;2463;49.948;8.472;2022-07-05T11:56:37;35.10;48.10
4896;DHT22;2463;49.948;8.472;2022-07-05T11:59:20;35.70;47.40
4896;DHT22;2463;49.948;8.472;2022-07-05T12:01:47;36.10;45.10
4896;DHT22;2463;49.948;8.472;2022-07-05T12:04:28;36.30;47.30
4896;DHT22;2463;49.948;8.472;2022-07-05T12:06:57;36.60;46.50
4896;DHT22;2463;49.948;8.472;2022-07-05T12:09:28;36.80;47.50
4896;DHT22;2463;49.948;8.472;2022-07-05T12:12:20;37.00;46.80
4896;DHT22;2463;49.948;8.472;2022-07-05T12:15:07;37.10;44.10
4896;DHT22;2463;49.948;8.472;2022-07-05T12:17:35;36.60;45.10
4896;DHT22;2463;49.948;8.472;2022-07-05T12:20:07;36.30;46.60
4896;DHT22;2463;49.948;8.472;2022-07-05T12:22:41;36.20;45.00
4896;DHT22;2463;49.948;8.472;2022-07-05T12:25:21;36.00;44.30
4896;DHT22;2463;49.948;8.472;2022-07-05T12:27:50;35.50;44.90
4896;DHT22;2463;49.948;8.472;2022-07-05T12:30:18;35.20;45.40
4896;DHT22;2463;49.948;8.472;2022-07-05T12:33:04;35.10;44.10
4896;DHT22;2463;49.948;8.472;2022-07-05T12:35:41;34.90;46.20
4896;DHT22;2463;49.948;8.472;2022-07-05T12:38:13;34.10;44.90
4896;DHT22;2463;49.948;8.472;2022-07-05T12:40:47;33.80;48.20
4896;DHT22;2463;49.948;8.472;2022-07-05T12:43:16;33.50;49.70
4896;DHT22;2463;49.948;8.472;2022-07-05T12:45:58;33.80;47.80
4896;DHT22;2463;49.948;8.472;2022-07-05T12:48:38;34.20;48.40
4896;DHT22;2463;49.948;8.472;2022-07-05T12:51:08;34.80;48.40
4896;DHT22;2463;49.948;8.472;2022-07-05T12:53:49;35.20;46.30
4896;DHT22;2463;49.948;8.472;2022-07-05T12:56:35;35.40;46.30
4896;DHT22;2463;49.948;8.472;2022-07-05T12:59:56;35.20;44.80
4896;DHT22;2463;49.948;8.472;2022-07-05T13:02:40;34.70;47.30
4896;DHT22;2463;49.948;8.472;2022-07-05T13:05:18;34.40;46.90
4896;DHT22;2463;49.948;8.472;2022-07-05T13:07:49;34.30;47.80
4896;DHT22;2463;49.948;8.472;2022-07-05T13:10:22;34.30;46.60
4896;DHT22;2463;49.948;8.472;2022-07-05T13:12:49;34.30;46.50
4896;DHT22;2463;49.948;8.472;2022-07-05T13:15:17;34.70;47.20
4896;DHT22;2463;49.948;8.472;2022-07-05T13:17:44;34.80;46.50
4896;DHT22;2463;49.948;8.472;2022-07-05T13:20:18;35.00;47.70
4896;DHT22;2463;49.948;8.472;2022-07-05T13:22:47;35.30;45.40
4896;DHT22;2463;49.948;8.472;2022-07-05T13:25:14;35.60;46.80
4896;DHT22;2463;49.948;8.472;2022-07-05T13:27:41;35.80;44.00
4896;DHT22;2463;49.948;8.472;2022-07-05T13:30:09;35.90;43.00
4896;DHT22;2463;49.948;8.472;2022-07-05T13:32:36;35.60;43.50
4896;DHT22;2463;49.948;8.472;2022-07-05T13:35:03;35.10;43.40
4896;DHT22;2463;49.948;8.472;2022-07-05T13:37:30;34.40;44.50
4896;DHT22;2463;49.948;8.472;2022-07-05T13:39:57;33.80;43.30
4896;DHT22;2463;49.948;8.472;2022-07-05T13:42:24;33.60;44.50
4896;DHT22;2463;49.948;8.472;2022-07-05T13:44:50;33.60;46.50
4896;DHT22;2463;49.948;8.472;2022-07-05T13:47:18;33.80;43.80
4896;DHT22;2463;49.948;8.472;2022-07-05T13:49:45;33.80;43.00
4896;DHT22;2463;49.948;8.472;2022-07-05T13:52:11;33.70;45.70
4896;DHT22;2463;49.948;8.472;2022-07-05T13:54:38;33.60;45.40
4896;DHT22;2463;49.948;8.472;2022-07-05T13:57:06;33.30;45.30
4896;DHT22;2463;49.948;8.472;2022-07-05T13:59:33;33.10;45.50
4896;DHT22;2463;49.948;8.472;2022-07-05T14:01:59;32.90;44.90
4896;DHT22;2463;49.948;8.472;2022-07-05T14:04:26;32.80;45.80
4896;DHT22;2463;49.948;8.472;2022-07-05T14:06:56;32.70;47.20
4896;DHT22;2463;49.948;8.472;2022-07-05T14:09:23;32.90;47.60
4896;DHT22;2463;49.948;8.472;2022-07-05T14:11:55;33.10;44.70
4896;DHT22;2463;49.948;8.472;2022-07-05T14:14:21;33.40;46.50
4896;DHT22;2463;49.948;8.472;2022-07-05T14:16:48;33.60;45.50
4896;DHT22;2463;49.948;8.472;2022-07-05T14:19:15;33.80;47.40
4896;DHT22;2463;49.948;8.472;2022-07-05T14:21:42;33.90;44.90
4896;DHT22;2463;49.948;8.472;2022-07-05T14:24:13;34.00;45.50
4896;DHT22;2463;49.948;8.472;2022-07-05T14:26:39;33.90;45.70
4896;DHT22;2463;49.948;8.472;2022-07-05T14:29:07;33.80;44.30
4896;DHT22;2463;49.948;8.472;2022-07-05T14:31:34;33.80;44.70
4896;DHT22;2463;49.948;8.472;2022-07-05T14:34:01;33.70;46.00
4896;DHT22;2463;49.948;8.472;2022-07-05T14:36:28;33.50;46.20
4896;DHT22;2463;49.948;8.472;2022-07-05T14:38:55;33.20;46.30
4896;DHT22;2463;49.948;8.472;2022-07-05T14:41:22;32.90;45.70
4896;DHT22;2463;49.948;8.472;2022-07-05T14:43:49;32.60;49.60
4896;DHT22;2463;49.948;8.472;2022-07-05T14:46:15;32.30;50.50
4896;DHT22;2463;49.948;8.472;2022-07-05T14:48:46;32.10;49.40
4896;DHT22;2463;49.948;8.472;2022-07-05T14:51:13;31.90;49.90
4896;DHT22;2463;49.948;8.472;2022-07-05T14:53:41;31.90;51.00
4896;DHT22;2463;49.948;8.472;2022-07-05T14:56:09;32.00;48.90
4896;DHT22;2463;49.948;8.472;2022-07-05T14:58:36;32.10;51.10
4896;DHT22;2463;49.948;8.472;2022-07-05T15:01:03;32.00;49.90
4896;DHT22;2463;49.948;8.472;2022-07-05T15:03:30;31.70;51.00
4896;DHT22;2463;49.948;8.472;2022-07-05T15:05:56;31.50;49.10
4896;DHT22;2463;49.948;8.472;2022-07-05T15:08:23;31.30;49.10
4896;DHT22;2463;49.948;8.472;2022-07-05T15:10:53;31.20;50.10
4896;DHT22;2463;49.948;8.472;2022-07-05T15:13:20;31.20;50.30
4896;DHT22;2463;49.948;8.472;2022-07-05T15:15:47;31.20;50.90
4896;DHT22;2463;49.948;8.472;2022-07-05T15:18:13;31.20;48.90
4896;DHT22;2463;49.948;8.472;2022-07-05T15:20:40;31.20;52.00
4896;DHT22;2463;49.948;8.472;2022-07-05T15:23:07;31.00;51.20
4896;DHT22;2463;49.948;8.472;2022-07-05T15:25:34;31.10;51.40
4896;DHT22;2463;49.948;8.472;2022-07-05T15:28:00;31.10;51.20
4896;DHT22;2463;49.948;8.472;2022-07-05T15:30:27;31.10;51.10
4896;DHT22;2463;49.948;8.472;2022-07-05T15:32:54;31.10;50.20
4896;DHT22;2463;49.948;8.472;2022-07-05T15:35:26;31.30;51.70
4896;DHT22;2463;49.948;8.472;2022-07-05T15:37:53;31.40;51.00
4896;DHT22;2463;49.948;8.472;2022-07-05T15:40:20;31.30;52.70
4896;DHT22;2463;49.948;8.472;2022-07-05T15:42:47;31.30;53.00
4896;DHT22;2463;49.948;8.472;2022-07-05T15:45:13;31.20;51.00
4896;DHT22;2463;49.948;8.472;2022-07-05T15:47:40;31.40;50.00
4896;DHT22;2463;49.948;8.472;2022-07-05T15:50:09;31.20;52.30
4896;DHT22;2463;49.948;8.472;2022-07-05T15:52:39;31.10;53.80
4896;DHT22;2463;49.948;8.472;2022-07-05T15:55:07;31.00;55.50
4896;DHT22;2463;49.948;8.472;2022-07-05T15:57:34;31.00;55.30
4896;DHT22;2463;49.948;8.472;2022-07-05T16:00:01;31.00;53.90
4896;DHT22;2463;49.948;8.472;2022-07-05T16:02:27;31.00;54.80
4896;DHT22;2463;49.948;8.472;2022-07-05T16:04:54;31.00;55.50
4896;DHT22;2463;49.948;8.472;2022-07-05T16:07:21;30.90;56.50
4896;DHT22;2463;49.948;8.472;2022-07-05T16:09:48;30.70;59.10
4896;DHT22;2463;49.948;8.472;2022-07-05T16:12:36;30.70;58.80
4896;DHT22;2463;49.948;8.472;2022-07-05T16:15:04;30.50;56.30
4896;DHT22;2463;49.948;8.472;2022-07-05T16:17:31;30.30;57.10
4896;DHT22;2463;49.948;8.472;2022-07-05T16:19:57;30.10;55.30